sensor_id;sensor_type;location;lat;lon;timestamp;P1;durP1;ratioP1;P2;durP2;ratioP2
41635;SDS011;27623;51.966;4.602;2022-11-15T00:02:06;53.67;;;21.83;;
41635;SDS011;27623;51.966;4.602;2022-11-15T00:04:31;64.00;;;23.23;;
41635;SDS011;27623;51.966;4.602;2022-11-15T00:06:57;54.67;;;21.85;;
41635;SDS011;27623;51.966;4.602;2022-11-15T00:09:22;58.22;;;23.10;;
41635;SDS011;27623;51.966;4.602;2022-11-15T00:11:48;52.30;;;21.27;;
41635;SDS011;27623;51.966;4.602;2022-11-15T00:14:16;62.80;;;22.85;;
41635;SDS011;27623;51.966;4.602;2022-11-15T00:16:41;59.75;;;22.08;;
41635;SDS011;27623;51.966;4.602;2022-11-15T00:19:09;69.55;;;23.65;;
41635;SDS011;27623;51.966;4.602;2022-11-15T00:21:34;60.40;;;23.08;;
41635;SDS011;27623;51.966;4.602;2022-11-15T00:24:00;71.30;;;26.00;;
41635;SDS011;27623;51.966;4.602;2022-11-15T00:26:25;60.33;;;21.92;;
41635;SDS011;27623;51.966;4.602;2022-11-15T00:28:54;68.30;;;23.63;;
41635;SDS011;27623;51.966;4.602;2022-11-15T00:31:19;73.70;;;25.40;;
41635;SDS011;27623;51.966;4.602;2022-11-15T00:33:44;61.20;;;22.70;;
41635;SDS011;27623;51.966;4.602;2022-11-15T00:36:10;69.13;;;25.05;;
41635;SDS011;27623;51.966;4.602;2022-11-15T00:38:37;65.97;;;24.65;;
41635;SDS011;27623;51.966;4.602;2022-11-15T00:41:04;77.30;;;25.42;;
41635;SDS011;27623;51.966;4.602;2022-11-15T00:43:31;69.55;;;23.35;;
41635;SDS011;27623;51.966;4.602;2022-11-15T00:45:57;67.95;;;24.08;;
41635;SDS011;27623;51.966;4.602;2022-11-15T00:48:22;72.55;;;24.65;;
41635;SDS011;27623;51.966;4.602;2022-11-15T00:50:50;65.60;;;24.15;;
41635;SDS011;27623;51.966;4.602;2022-11-15T00:53:16;70.97;;;24.13;;
41635;SDS011;27623;51.966;4.602;2022-11-15T00:55:41;69.30;;;24.58;;
41635;SDS011;27623;51.966;4.602;2022-11-15T00:58:07;69.70;;;23.75;;
41635;SDS011;27623;51.966;4.602;2022-11-15T01:00:32;61.97;;;23.13;;
41635;SDS011;27623;51.966;4.602;2022-11-15T01:02:59;68.13;;;24.70;;
41635;SDS011;27623;51.966;4.602;2022-11-15T01:05:26;68.13;;;23.90;;
41635;SDS011;27623;51.966;4.602;2022-11-15T01:07:51;71.93;;;26.13;;
41635;SDS011;27623;51.966;4.602;2022-11-15T01:10:18;72.22;;;24.83;;
41635;SDS011;27623;51.966;4.602;2022-11-15T01:12:43;76.15;;;26.38;;
41635;SDS011;27623;51.966;4.602;2022-11-15T01:15:09;66.55;;;25.92;;
41635;SDS011;27623;51.966;4.602;2022-11-15T01:17:34;78.43;;;25.70;;
41635;SDS011;27623;51.966;4.602;2022-11-15T01:20:00;79.57;;;26.83;;
41635;SDS011;27623;51.966;4.602;2022-11-15T01:22:26;69.80;;;25.52;;
41635;SDS011;27623;51.966;4.602;2022-11-15T01:24:51;70.45;;;27.00;;
41635;SDS011;27623;51.966;4.602;2022-11-15T01:27:17;75.90;;;26.90;;
41635;SDS011;27623;51.966;4.602;2022-11-15T01:29:42;68.05;;;23.77;;
41635;SDS011;27623;51.966;4.602;2022-11-15T01:32:07;79.05;;;26.60;;
41635;SDS011;27623;51.966;4.602;2022-11-15T01:34:33;68.15;;;25.52;;
41635;SDS011;27623;51.966;4.602;2022-11-15T01:36:58;76.35;;;26.63;;
41635;SDS011;27623;51.966;4.602;2022-11-15T01:39:26;71.30;;;27.98;;
41635;SDS011;27623;51.966;4.602;2022-11-15T01:41:53;75.75;;;26.60;;
41635;SDS011;27623;51.966;4.602;2022-11-15T01:47:00;66.72;;;25.20;;
41635;SDS011;27623;51.966;4.602;2022-11-15T01:49:29;76.72;;;25.33;;
41635;SDS011;27623;51.966;4.602;2022-11-15T01:51:57;77.65;;;26.38;;
41635;SDS011;27623;51.966;4.602;2022-11-15T01:54:23;75.35;;;26.38;;
41635;SDS011;27623;51.966;4.602;2022-11-15T01:56:53;69.45;;;25.33;;
41635;SDS011;27623;51.966;4.602;2022-11-15T01:59:26;76.57;;;27.10;;
41635;SDS011;27623;51.966;4.602;2022-11-15T02:01:52;83.57;;;28.27;;
41635;SDS011;27623;51.966;4.602;2022-11-15T02:04:22;72.88;;;27.98;;
41635;SDS011;27623;51.966;4.602;2022-11-15T02:06:50;81.30;;;28.65;;
41635;SDS011;27623;51.966;4.602;2022-11-15T02:09:17;76.40;;;26.50;;
41635;SDS011;27623;51.966;4.602;2022-11-15T02:11:45;72.95;;;27.30;;
41635;SDS011;27623;51.966;4.602;2022-11-15T02:14:12;69.50;;;26.48;;
41635;SDS011;27623;51.966;4.602;2022-11-15T02:16:49;76.30;;;28.48;;
41635;SDS011;27623;51.966;4.602;2022-11-15T02:32:58;81.95;;;27.75;;
41635;SDS011;27623;51.966;4.602;2022-11-15T02:46:42;72.38;;;27.77;;
41635;SDS011;27623;51.966;4.602;2022-11-15T02:49:32;72.65;;;25.80;;
41635;SDS011;27623;51.966;4.602;2022-11-15T02:51:59;68.28;;;27.25;;
41635;SDS011;27623;51.966;4.602;2022-11-15T02:54:26;68.15;;;25.77;;
41635;SDS011;27623;51.966;4.602;2022-11-15T02:56:56;73.07;;;26.80;;
41635;SDS011;27623;51.966;4.602;2022-11-15T03:02:25;67.47;;;25.45;;
41635;SDS011;27623;51.966;4.602;2022-11-15T03:13:27;55.53;;;24.40;;
41635;SDS011;27623;51.966;4.602;2022-11-15T03:16:05;52.22;;;23.75;;
41635;SDS011;27623;51.966;4.602;2022-11-15T03:18:44;53.75;;;24.17;;
41635;SDS011;27623;51.966;4.602;2022-11-15T03:21:18;54.17;;;23.52;;
41635;SDS011;27623;51.966;4.602;2022-11-15T03:23:46;55.88;;;21.90;;
41635;SDS011;27623;51.966;4.602;2022-11-15T03:26:14;58.08;;;24.63;;
41635;SDS011;27623;51.966;4.602;2022-11-15T03:28:47;58.33;;;23.58;;
41635;SDS011;27623;51.966;4.602;2022-11-15T03:31:16;52.28;;;23.35;;
41635;SDS011;27623;51.966;4.602;2022-11-15T03:34:05;49.83;;;22.33;;
41635;SDS011;27623;51.966;4.602;2022-11-15T03:36:35;47.55;;;22.85;;
41635;SDS011;27623;51.966;4.602;2022-11-15T03:39:05;51.40;;;21.52;;
41635;SDS011;27623;51.966;4.602;2022-11-15T03:41:38;51.05;;;22.13;;
41635;SDS011;27623;51.966;4.602;2022-11-15T03:44:31;49.92;;;22.55;;
41635;SDS011;27623;51.966;4.602;2022-11-15T03:49:53;44.00;;;19.90;;
41635;SDS011;27623;51.966;4.602;2022-11-15T03:52:24;40.45;;;20.40;;
41635;SDS011;27623;51.966;4.602;2022-11-15T03:54:54;44.05;;;21.10;;
41635;SDS011;27623;51.966;4.602;2022-11-15T03:57:24;43.92;;;20.70;;
41635;SDS011;27623;51.966;4.602;2022-11-15T03:59:49;40.67;;;18.15;;
41635;SDS011;27623;51.966;4.602;2022-11-15T04:02:15;38.95;;;17.75;;
41635;SDS011;27623;51.966;4.602;2022-11-15T04:04:40;40.03;;;18.42;;
41635;SDS011;27623;51.966;4.602;2022-11-15T04:07:06;40.70;;;18.42;;
41635;SDS011;27623;51.966;4.602;2022-11-15T04:09:31;42.17;;;18.27;;
41635;SDS011;27623;51.966;4.602;2022-11-15T04:11:57;31.25;;;16.80;;
41635;SDS011;27623;51.966;4.602;2022-11-15T04:14:22;39.85;;;18.13;;
41635;SDS011;27623;51.966;4.602;2022-11-15T04:16:48;32.60;;;15.75;;
41635;SDS011;27623;51.966;4.602;2022-11-15T04:19:13;36.15;;;16.80;;
41635;SDS011;27623;51.966;4.602;2022-11-15T04:21:57;32.35;;;16.80;;
41635;SDS011;27623;51.966;4.602;2022-11-15T04:24:41;30.08;;;15.80;;
41635;SDS011;27623;51.966;4.602;2022-11-15T04:27:09;29.58;;;15.02;;
41635;SDS011;27623;51.966;4.602;2022-11-15T04:29:37;29.98;;;15.57;;
41635;SDS011;27623;51.966;4.602;2022-11-15T04:32:03;30.77;;;15.30;;
41635;SDS011;27623;51.966;4.602;2022-11-15T04:34:30;36.55;;;15.02;;
41635;SDS011;27623;51.966;4.602;2022-11-15T04:36:55;28.02;;;14.02;;
41635;SDS011;27623;51.966;4.602;2022-11-15T04:39:41;30.52;;;14.10;;
41635;SDS011;27623;51.966;4.602;2022-11-15T04:42:07;28.52;;;15.55;;
41635;SDS011;27623;51.966;4.602;2022-11-15T04:44:33;28.88;;;14.35;;
41635;SDS011;27623;51.966;4.602;2022-11-15T04:46:58;31.00;;;14.25;;
41635;SDS011;27623;51.966;4.602;2022-11-15T04:49:26;27.10;;;14.65;;
41635;SDS011;27623;51.966;4.602;2022-11-15T04:51:52;33.50;;;15.63;;
41635;SDS011;27623;51.966;4.602;2022-11-15T04:54:17;34.50;;;14.63;;
41635;SDS011;27623;51.966;4.602;2022-11-15T04:56:43;35.17;;;15.02;;
41635;SDS011;27623;51.966;4.602;2022-11-15T04:59:11;29.88;;;13.77;;
41635;SDS011;27623;51.966;4.602;2022-11-15T05:01:37;26.38;;;13.95;;
41635;SDS011;27623;51.966;4.602;2022-11-15T05:04:02;26.02;;;13.70;;
41635;SDS011;27623;51.966;4.602;2022-11-15T05:06:44;26.70;;;12.13;;
41635;SDS011;27623;51.966;4.602;2022-11-15T05:09:10;22.25;;;12.35;;
41635;SDS011;27623;51.966;4.602;2022-11-15T05:11:38;28.77;;;13.43;;
41635;SDS011;27623;51.966;4.602;2022-11-15T05:14:03;27.42;;;12.80;;
41635;SDS011;27623;51.966;4.602;2022-11-15T05:16:28;27.30;;;12.77;;
41635;SDS011;27623;51.966;4.602;2022-11-15T05:18:54;30.58;;;13.30;;
41635;SDS011;27623;51.966;4.602;2022-11-15T05:21:20;23.75;;;12.40;;
41635;SDS011;27623;51.966;4.602;2022-11-15T05:23:45;22.77;;;11.50;;
41635;SDS011;27623;51.966;4.602;2022-11-15T05:26:15;30.52;;;12.90;;
41635;SDS011;27623;51.966;4.602;2022-11-15T05:28:42;22.50;;;10.68;;
41635;SDS011;27623;51.966;4.602;2022-11-15T05:31:09;21.02;;;10.52;;
41635;SDS011;27623;51.966;4.602;2022-11-15T05:33:39;21.63;;;10.68;;
41635;SDS011;27623;51.966;4.602;2022-11-15T05:36:16;20.95;;;9.82;;
41635;SDS011;27623;51.966;4.602;2022-11-15T05:38:47;17.25;;;8.88;;
41635;SDS011;27623;51.966;4.602;2022-11-15T05:41:14;20.38;;;9.32;;
41635;SDS011;27623;51.966;4.602;2022-11-15T05:43:44;20.52;;;9.10;;
41635;SDS011;27623;51.966;4.602;2022-11-15T05:46:10;24.13;;;9.65;;
41635;SDS011;27623;51.966;4.602;2022-11-15T05:48:38;22.65;;;9.10;;
41635;SDS011;27623;51.966;4.602;2022-11-15T05:51:08;17.98;;;8.32;;
41635;SDS011;27623;51.966;4.602;2022-11-15T05:53:34;19.48;;;9.73;;
41635;SDS011;27623;51.966;4.602;2022-11-15T05:56:02;14.07;;;7.38;;
41635;SDS011;27623;51.966;4.602;2022-11-15T05:58:30;18.13;;;6.97;;
41635;SDS011;27623;51.966;4.602;2022-11-15T06:00:57;19.92;;;8.02;;
41635;SDS011;27623;51.966;4.602;2022-11-15T06:03:22;23.35;;;8.35;;
41635;SDS011;27623;51.966;4.602;2022-11-15T06:05:48;20.25;;;7.57;;
41635;SDS011;27623;51.966;4.602;2022-11-15T06:08:13;19.38;;;7.45;;
41635;SDS011;27623;51.966;4.602;2022-11-15T06:10:38;18.48;;;7.38;;
41635;SDS011;27623;51.966;4.602;2022-11-15T06:13:04;14.05;;;6.65;;
41635;SDS011;27623;51.966;4.602;2022-11-15T06:15:31;16.83;;;6.30;;
41635;SDS011;27623;51.966;4.602;2022-11-15T06:17:57;12.25;;;5.90;;
41635;SDS011;27623;51.966;4.602;2022-11-15T06:20:24;9.48;;;5.40;;
41635;SDS011;27623;51.966;4.602;2022-11-15T06:22:50;14.90;;;5.05;;
41635;SDS011;27623;51.966;4.602;2022-11-15T06:25:16;14.35;;;4.90;;
41635;SDS011;27623;51.966;4.602;2022-11-15T06:27:41;13.65;;;5.13;;
41635;SDS011;27623;51.966;4.602;2022-11-15T06:30:06;11.48;;;4.72;;
41635;SDS011;27623;51.966;4.602;2022-11-15T06:32:32;9.57;;;4.68;;
41635;SDS011;27623;51.966;4.602;2022-11-15T06:34:57;11.32;;;4.97;;
41635;SDS011;27623;51.966;4.602;2022-11-15T06:37:23;13.65;;;5.07;;
41635;SDS011;27623;51.966;4.602;2022-11-15T06:39:48;20.95;;;5.85;;
41635;SDS011;27623;51.966;4.602;2022-11-15T06:42:14;8.85;;;4.82;;
41635;SDS011;27623;51.966;4.602;2022-11-15T06:44:39;14.38;;;5.53;;
41635;SDS011;27623;51.966;4.602;2022-11-15T06:47:04;14.27;;;4.50;;
41635;SDS011;27623;51.966;4.602;2022-11-15T06:49:30;11.40;;;5.10;;
41635;SDS011;27623;51.966;4.602;2022-11-15T06:51:56;15.60;;;5.47;;
41635;SDS011;27623;51.966;4.602;2022-11-15T06:54:24;14.27;;;4.90;;
41635;SDS011;27623;51.966;4.602;2022-11-15T06:56:50;12.23;;;5.32;;
41635;SDS011;27623;51.966;4.602;2022-11-15T06:59:15;14.23;;;5.80;;
41635;SDS011;27623;51.966;4.602;2022-11-15T07:01:41;16.10;;;5.80;;
41635;SDS011;27623;51.966;4.602;2022-11-15T07:04:06;13.48;;;5.03;;
41635;SDS011;27623;51.966;4.602;2022-11-15T07:06:32;14.30;;;5.10;;
41635;SDS011;27623;51.966;4.602;2022-11-15T07:08:58;15.65;;;5.60;;
41635;SDS011;27623;51.966;4.602;2022-11-15T07:11:23;11.13;;;5.10;;
41635;SDS011;27623;51.966;4.602;2022-11-15T07:13:48;13.88;;;5.75;;
41635;SDS011;27623;51.966;4.602;2022-11-15T07:16:14;12.30;;;5.78;;
41635;SDS011;27623;51.966;4.602;2022-11-15T07:18:39;16.55;;;5.72;;
41635;SDS011;27623;51.966;4.602;2022-11-15T07:21:06;17.52;;;5.07;;
41635;SDS011;27623;51.966;4.602;2022-11-15T07:23:37;18.40;;;5.00;;
41635;SDS011;27623;51.966;4.602;2022-11-15T07:26:04;10.32;;;4.88;;
41635;SDS011;27623;51.966;4.602;2022-11-15T07:28:29;10.90;;;4.80;;
41635;SDS011;27623;51.966;4.602;2022-11-15T07:30:55;10.75;;;4.22;;
41635;SDS011;27623;51.966;4.602;2022-11-15T07:33:20;9.25;;;5.13;;
41635;SDS011;27623;51.966;4.602;2022-11-15T07:35:46;14.63;;;4.55;;
41635;SDS011;27623;51.966;4.602;2022-11-15T07:38:15;16.00;;;4.53;;
41635;SDS011;27623;51.966;4.602;2022-11-15T07:40:44;16.10;;;4.63;;
41635;SDS011;27623;51.966;4.602;2022-11-15T07:43:10;12.15;;;5.55;;
41635;SDS011;27623;51.966;4.602;2022-11-15T07:45:44;14.13;;;4.80;;
41635;SDS011;27623;51.966;4.602;2022-11-15T07:48:10;9.52;;;4.88;;
41635;SDS011;27623;51.966;4.602;2022-11-15T07:50:36;16.20;;;4.57;;
41635;SDS011;27623;51.966;4.602;2022-11-15T07:53:05;11.98;;;4.88;;
41635;SDS011;27623;51.966;4.602;2022-11-15T07:55:31;11.50;;;4.90;;
41635;SDS011;27623;51.966;4.602;2022-11-15T07:58:00;10.93;;;5.18;;
41635;SDS011;27623;51.966;4.602;2022-11-15T08:00:29;13.05;;;5.93;;
41635;SDS011;27623;51.966;4.602;2022-11-15T08:03:14;11.52;;;5.80;;
41635;SDS011;27623;51.966;4.602;2022-11-15T08:05:41;14.77;;;6.57;;
41635;SDS011;27623;51.966;4.602;2022-11-15T08:08:08;16.65;;;6.85;;
41635;SDS011;27623;51.966;4.602;2022-11-15T08:10:35;13.80;;;6.57;;
41635;SDS011;27623;51.966;4.602;2022-11-15T08:13:07;14.85;;;6.90;;
41635;SDS011;27623;51.966;4.602;2022-11-15T08:15:34;15.80;;;6.28;;
41635;SDS011;27623;51.966;4.602;2022-11-15T08:18:02;15.63;;;6.65;;
41635;SDS011;27623;51.966;4.602;2022-11-15T08:20:29;11.52;;;6.20;;
41635;SDS011;27623;51.966;4.602;2022-11-15T08:22:58;17.80;;;6.72;;
41635;SDS011;27623;51.966;4.602;2022-11-15T08:25:25;15.52;;;6.85;;
41635;SDS011;27623;51.966;4.602;2022-11-15T08:27:56;19.50;;;7.43;;
41635;SDS011;27623;51.966;4.602;2022-11-15T08:30:23;14.95;;;7.32;;
41635;SDS011;27623;51.966;4.602;2022-11-15T08:32:49;17.98;;;7.32;;
41635;SDS011;27623;51.966;4.602;2022-11-15T08:35:16;16.60;;;7.03;;
41635;SDS011;27623;51.966;4.602;2022-11-15T08:37:42;18.65;;;6.63;;
41635;SDS011;27623;51.966;4.602;2022-11-15T08:40:07;14.85;;;6.53;;
41635;SDS011;27623;51.966;4.602;2022-11-15T08:42:34;16.30;;;5.88;;
41635;SDS011;27623;51.966;4.602;2022-11-15T08:45:00;14.60;;;5.70;;
41635;SDS011;27623;51.966;4.602;2022-11-15T08:47:26;11.70;;;5.93;;
41635;SDS011;27623;51.966;4.602;2022-11-15T08:49:52;12.48;;;6.00;;
41635;SDS011;27623;51.966;4.602;2022-11-15T08:52:20;11.05;;;5.70;;
41635;SDS011;27623;51.966;4.602;2022-11-15T08:54:45;15.68;;;6.70;;
41635;SDS011;27623;51.966;4.602;2022-11-15T08:57:11;16.15;;;5.78;;
41635;SDS011;27623;51.966;4.602;2022-11-15T08:59:37;12.77;;;5.85;;
41635;SDS011;27623;51.966;4.602;2022-11-15T09:02:02;12.15;;;5.57;;
41635;SDS011;27623;51.966;4.602;2022-11-15T09:04:28;13.18;;;5.88;;
41635;SDS011;27623;51.966;4.602;2022-11-15T09:06:54;9.35;;;4.95;;
41635;SDS011;27623;51.966;4.602;2022-11-15T09:09:19;12.70;;;5.15;;
41635;SDS011;27623;51.966;4.602;2022-11-15T09:11:45;10.55;;;5.22;;
41635;SDS011;27623;51.966;4.602;2022-11-15T09:14:11;14.70;;;5.22;;
41635;SDS011;27623;51.966;4.602;2022-11-15T09:16:37;9.18;;;4.57;;
41635;SDS011;27623;51.966;4.602;2022-11-15T09:19:03;11.00;;;5.03;;
41635;SDS011;27623;51.966;4.602;2022-11-15T09:21:29;11.38;;;4.80;;
41635;SDS011;27623;51.966;4.602;2022-11-15T09:23:55;10.70;;;4.75;;
41635;SDS011;27623;51.966;4.602;2022-11-15T09:26:20;11.18;;;4.55;;
41635;SDS011;27623;51.966;4.602;2022-11-15T09:28:46;12.52;;;4.55;;
41635;SDS011;27623;51.966;4.602;2022-11-15T09:31:13;9.18;;;4.03;;
41635;SDS011;27623;51.966;4.602;2022-11-15T09:33:39;9.60;;;4.63;;
41635;SDS011;27623;51.966;4.602;2022-11-15T09:36:05;12.55;;;4.40;;
41635;SDS011;27623;51.966;4.602;2022-11-15T09:38:33;8.95;;;4.30;;
41635;SDS011;27623;51.966;4.602;2022-11-15T09:41:08;8.15;;;4.03;;
41635;SDS011;27623;51.966;4.602;2022-11-15T09:43:52;13.40;;;3.60;;
41635;SDS011;27623;51.966;4.602;2022-11-15T09:49:42;7.32;;;3.25;;
41635;SDS011;27623;51.966;4.602;2022-11-15T09:52:08;7.60;;;2.88;;
41635;SDS011;27623;51.966;4.602;2022-11-15T09:54:36;8.50;;;3.25;;
41635;SDS011;27623;51.966;4.602;2022-11-15T09:57:04;8.65;;;3.28;;
41635;SDS011;27623;51.966;4.602;2022-11-15T10:05:23;7.45;;;3.30;;
41635;SDS011;27623;51.966;4.602;2022-11-15T10:07:56;13.07;;;3.30;;
41635;SDS011;27623;51.966;4.602;2022-11-15T10:10:39;6.55;;;4.07;;
41635;SDS011;27623;51.966;4.602;2022-11-15T10:13:12;9.25;;;2.53;;
41635;SDS011;27623;51.966;4.602;2022-11-15T10:15:42;8.18;;;2.33;;
41635;SDS011;27623;51.966;4.602;2022-11-15T10:18:28;6.95;;;2.42;;
41635;SDS011;27623;51.966;4.602;2022-11-15T10:21:17;13.88;;;3.08;;
41635;SDS011;27623;51.966;4.602;2022-11-15T10:23:45;7.30;;;2.05;;
41635;SDS011;27623;51.966;4.602;2022-11-15T10:26:13;9.73;;;2.60;;
41635;SDS011;27623;51.966;4.602;2022-11-15T10:28:41;6.80;;;2.28;;
41635;SDS011;27623;51.966;4.602;2022-11-15T10:31:21;11.52;;;2.40;;
41635;SDS011;27623;51.966;4.602;2022-11-15T10:33:51;5.85;;;2.10;;
41635;SDS011;27623;51.966;4.602;2022-11-15T10:36:22;8.05;;;2.28;;
41635;SDS011;27623;51.966;4.602;2022-11-15T10:38:53;8.85;;;2.95;;
41635;SDS011;27623;51.966;4.602;2022-11-15T10:41:22;9.80;;;2.80;;
41635;SDS011;27623;51.966;4.602;2022-11-15T10:46:33;7.40;;;2.20;;
41635;SDS011;27623;51.966;4.602;2022-11-15T10:51:40;9.00;;;2.38;;
41635;SDS011;27623;51.966;4.602;2022-11-15T10:54:10;8.80;;;2.20;;
41635;SDS011;27623;51.966;4.602;2022-11-15T10:56:38;12.05;;;2.45;;
41635;SDS011;27623;51.966;4.602;2022-11-15T10:59:09;7.63;;;2.17;;
41635;SDS011;27623;51.966;4.602;2022-11-15T11:01:47;8.48;;;2.05;;
41635;SDS011;27623;51.966;4.602;2022-11-15T11:04:13;5.55;;;1.77;;
41635;SDS011;27623;51.966;4.602;2022-11-15T11:06:46;4.50;;;1.98;;
41635;SDS011;27623;51.966;4.602;2022-11-15T11:11:57;5.60;;;1.60;;
41635;SDS011;27623;51.966;4.602;2022-11-15T11:14:24;7.85;;;1.85;;
41635;SDS011;27623;51.966;4.602;2022-11-15T11:27:39;4.93;;;1.30;;
41635;SDS011;27623;51.966;4.602;2022-11-15T11:30:41;9.10;;;1.35;;
41635;SDS011;27623;51.966;4.602;2022-11-15T11:33:20;4.68;;;1.20;;
41635;SDS011;27623;51.966;4.602;2022-11-15T11:38:46;9.25;;;2.00;;
41635;SDS011;27623;51.966;4.602;2022-11-15T11:47:00;12.57;;;3.25;;
41635;SDS011;27623;51.966;4.602;2022-11-15T11:54:58;5.97;;;1.55;;
41635;SDS011;27623;51.966;4.602;2022-11-15T11:57:28;4.70;;;1.25;;
41635;SDS011;27623;51.966;4.602;2022-11-15T12:00:19;8.13;;;1.95;;
41635;SDS011;27623;51.966;4.602;2022-11-15T12:03:04;7.10;;;1.35;;
41635;SDS011;27623;51.966;4.602;2022-11-15T12:05:54;6.30;;;1.20;;
41635;SDS011;27623;51.966;4.602;2022-11-15T12:08:35;5.88;;;1.30;;
41635;SDS011;27623;51.966;4.602;2022-11-15T12:11:09;10.55;;;1.42;;
41635;SDS011;27623;51.966;4.602;2022-11-15T12:13:38;6.85;;;1.13;;
41635;SDS011;27623;51.966;4.602;2022-11-15T12:16:07;6.13;;;0.95;;
41635;SDS011;27623;51.966;4.602;2022-11-15T12:18:56;3.85;;;0.80;;
41635;SDS011;27623;51.966;4.602;2022-11-15T12:24:30;4.15;;;1.05;;
41635;SDS011;27623;51.966;4.602;2022-11-15T12:27:01;4.95;;;1.00;;
41635;SDS011;27623;51.966;4.602;2022-11-15T12:29:35;5.30;;;1.10;;
41635;SDS011;27623;51.966;4.602;2022-11-15T12:32:04;6.72;;;1.45;;
41635;SDS011;27623;51.966;4.602;2022-11-15T12:34:38;6.18;;;0.80;;
41635;SDS011;27623;51.966;4.602;2022-11-15T12:42:36;4.97;;;1.05;;
41635;SDS011;27623;51.966;4.602;2022-11-15T12:48:44;6.32;;;1.13;;
41635;SDS011;27623;51.966;4.602;2022-11-15T12:51:11;5.50;;;1.00;;
41635;SDS011;27623;51.966;4.602;2022-11-15T12:53:36;5.07;;;0.95;;
41635;SDS011;27623;51.966;4.602;2022-11-15T12:58:44;3.47;;;0.77;;
41635;SDS011;27623;51.966;4.602;2022-11-15T13:06:39;3.53;;;1.20;;
41635;SDS011;27623;51.966;4.602;2022-11-15T13:09:49;5.43;;;0.90;;
41635;SDS011;27623;51.966;4.602;2022-11-15T13:11:53;2.42;;;0.88;;
41635;SDS011;27623;51.966;4.602;2022-11-15T13:14:38;5.68;;;1.00;;
41635;SDS011;27623;51.966;4.602;2022-11-15T13:19:59;3.70;;;0.68;;
41635;SDS011;27623;51.966;4.602;2022-11-15T13:22:26;7.28;;;0.80;;
41635;SDS011;27623;51.966;4.602;2022-11-15T13:25:54;4.35;;;1.00;;
41635;SDS011;27623;51.966;4.602;2022-11-15T13:30:40;5.05;;;0.98;;
41635;SDS011;27623;51.966;4.602;2022-11-15T13:33:17;6.55;;;1.05;;
41635;SDS011;27623;51.966;4.602;2022-11-15T13:35:46;6.55;;;0.93;;
41635;SDS011;27623;51.966;4.602;2022-11-15T13:38:18;4.55;;;0.95;;
41635;SDS011;27623;51.966;4.602;2022-11-15T13:40:55;6.03;;;1.67;;
41635;SDS011;27623;51.966;4.602;2022-11-15T13:48:59;2.92;;;1.45;;
41635;SDS011;27623;51.966;4.602;2022-11-15T13:51:32;3.65;;;0.90;;
41635;SDS011;27623;51.966;4.602;2022-11-15T13:56:47;7.85;;;0.80;;
41635;SDS011;27623;51.966;4.602;2022-11-15T13:59:23;7.82;;;1.27;;
41635;SDS011;27623;51.966;4.602;2022-11-15T14:01:51;6.30;;;0.80;;
41635;SDS011;27623;51.966;4.602;2022-11-15T14:04:19;7.00;;;2.17;;
41635;SDS011;27623;51.966;4.602;2022-11-15T14:06:51;5.13;;;1.02;;
41635;SDS011;27623;51.966;4.602;2022-11-15T14:14:48;3.78;;;1.30;;
41635;SDS011;27623;51.966;4.602;2022-11-15T14:17:20;3.38;;;0.95;;
41635;SDS011;27623;51.966;4.602;2022-11-15T14:20:00;2.53;;;0.73;;
41635;SDS011;27623;51.966;4.602;2022-11-15T14:22:27;5.15;;;1.23;;
41635;SDS011;27623;51.966;4.602;2022-11-15T14:25:05;3.40;;;1.00;;
41635;SDS011;27623;51.966;4.602;2022-11-15T14:27:54;8.95;;;0.80;;
41635;SDS011;27623;51.966;4.602;2022-11-15T14:30:55;3.53;;;1.20;;
41635;SDS011;27623;51.966;4.602;2022-11-15T14:33:24;2.95;;;1.20;;
41635;SDS011;27623;51.966;4.602;2022-11-15T14:36:10;3.33;;;0.90;;
41635;SDS011;27623;51.966;4.602;2022-11-15T14:38:40;6.93;;;1.10;;
41635;SDS011;27623;51.966;4.602;2022-11-15T14:41:26;2.90;;;1.33;;
41635;SDS011;27623;51.966;4.602;2022-11-15T14:43:59;10.38;;;2.50;;
41635;SDS011;27623;51.966;4.602;2022-11-15T14:46:32;6.80;;;1.30;;
41635;SDS011;27623;51.966;4.602;2022-11-15T14:49:07;5.30;;;0.95;;
41635;SDS011;27623;51.966;4.602;2022-11-15T14:51:32;5.40;;;1.15;;
41635;SDS011;27623;51.966;4.602;2022-11-15T14:54:03;5.45;;;1.77;;
41635;SDS011;27623;51.966;4.602;2022-11-15T14:56:29;6.43;;;1.10;;
41635;SDS011;27623;51.966;4.602;2022-11-15T14:58:54;5.13;;;1.60;;
41635;SDS011;27623;51.966;4.602;2022-11-15T15:01:21;9.70;;;2.55;;
41635;SDS011;27623;51.966;4.602;2022-11-15T15:03:51;8.77;;;1.42;;
41635;SDS011;27623;51.966;4.602;2022-11-15T15:06:17;4.13;;;1.10;;
41635;SDS011;27623;51.966;4.602;2022-11-15T15:08:45;8.73;;;1.92;;
41635;SDS011;27623;51.966;4.602;2022-11-15T15:11:22;5.35;;;1.77;;
41635;SDS011;27623;51.966;4.602;2022-11-15T15:13:50;3.78;;;1.27;;
41635;SDS011;27623;51.966;4.602;2022-11-15T15:16:17;7.40;;;1.48;;
41635;SDS011;27623;51.966;4.602;2022-11-15T15:18:42;3.60;;;1.70;;
41635;SDS011;27623;51.966;4.602;2022-11-15T15:21:15;1.95;;;0.90;;
41635;SDS011;27623;51.966;4.602;2022-11-15T15:23:44;8.77;;;3.42;;
41635;SDS011;27623;51.966;4.602;2022-11-15T15:26:10;5.35;;;1.30;;
41635;SDS011;27623;51.966;4.602;2022-11-15T15:28:36;3.60;;;1.08;;
41635;SDS011;27623;51.966;4.602;2022-11-15T15:31:04;4.43;;;1.30;;
41635;SDS011;27623;51.966;4.602;2022-11-15T15:33:30;6.50;;;1.30;;
41635;SDS011;27623;51.966;4.602;2022-11-15T15:35:56;6.35;;;1.30;;
41635;SDS011;27623;51.966;4.602;2022-11-15T15:38:22;8.27;;;1.42;;
41635;SDS011;27623;51.966;4.602;2022-11-15T15:40:48;3.85;;;1.27;;
41635;SDS011;27623;51.966;4.602;2022-11-15T15:43:13;3.58;;;1.15;;
41635;SDS011;27623;51.966;4.602;2022-11-15T15:45:39;5.72;;;1.52;;
41635;SDS011;27623;51.966;4.602;2022-11-15T15:48:09;6.05;;;1.80;;
41635;SDS011;27623;51.966;4.602;2022-11-15T15:50:37;4.30;;;1.40;;
41635;SDS011;27623;51.966;4.602;2022-11-15T15:53:03;6.30;;;1.85;;
41635;SDS011;27623;51.966;4.602;2022-11-15T15:55:29;4.43;;;1.90;;
41635;SDS011;27623;51.966;4.602;2022-11-15T15:57:55;8.20;;;3.40;;
41635;SDS011;27623;51.966;4.602;2022-11-15T16:00:21;13.57;;;4.32;;
41635;SDS011;27623;51.966;4.602;2022-11-15T16:02:48;7.10;;;2.20;;
41635;SDS011;27623;51.966;4.602;2022-11-15T16:05:14;7.10;;;2.45;;
41635;SDS011;27623;51.966;4.602;2022-11-15T16:07:40;6.97;;;2.25;;
41635;SDS011;27623;51.966;4.602;2022-11-15T16:10:19;14.07;;;6.25;;
41635;SDS011;27623;51.966;4.602;2022-11-15T16:12:52;8.73;;;3.17;;
41635;SDS011;27623;51.966;4.602;2022-11-15T16:15:22;6.72;;;1.98;;
41635;SDS011;27623;51.966;4.602;2022-11-15T16:17:53;4.88;;;1.60;;
41635;SDS011;27623;51.966;4.602;2022-11-15T16:20:27;5.43;;;1.80;;
41635;SDS011;27623;51.966;4.602;2022-11-15T16:23:08;5.37;;;1.83;;
41635;SDS011;27623;51.966;4.602;2022-11-15T16:25:39;5.10;;;1.60;;
41635;SDS011;27623;51.966;4.602;2022-11-15T16:30:45;5.28;;;1.70;;
41635;SDS011;27623;51.966;4.602;2022-11-15T16:33:10;5.18;;;2.10;;
41635;SDS011;27623;51.966;4.602;2022-11-15T16:35:38;6.05;;;2.25;;
41635;SDS011;27623;51.966;4.602;2022-11-15T16:38:04;6.85;;;2.28;;
41635;SDS011;27623;51.966;4.602;2022-11-15T16:40:31;4.28;;;2.10;;
41635;SDS011;27623;51.966;4.602;2022-11-15T16:42:57;9.63;;;2.53;;
41635;SDS011;27623;51.966;4.602;2022-11-15T16:45:28;12.07;;;2.78;;
41635;SDS011;27623;51.966;4.602;2022-11-15T16:47:54;15.05;;;4.90;;
41635;SDS011;27623;51.966;4.602;2022-11-15T16:50:24;9.20;;;3.60;;
41635;SDS011;27623;51.966;4.602;2022-11-15T16:52:51;9.35;;;3.53;;
41635;SDS011;27623;51.966;4.602;2022-11-15T16:55:22;16.27;;;7.07;;